sensor_id;sensor_type;location;lat;lon;timestamp;pressure;altitude;pressure_sealevel;temperature;humidity
5522;BME280;2783;48.730;8.006;2023-03-26T00:01:26;99647.47;;;12.06;80.57
5522;BME280;2783;48.730;8.006;2023-03-26T00:03:52;99641.63;;;11.98;80.65
5522;BME280;2783;48.730;8.006;2023-03-26T00:06:26;99637.50;;;11.90;80.95
5522;BME280;2783;48.730;8.006;2023-03-26T00:08:52;99636.41;;;11.94;80.68
5522;BME280;2783;48.730;8.006;2023-03-26T00:11:19;99637.63;;;11.87;81.08
5522;BME280;2783;48.730;8.006;2023-03-26T00:13:45;99638.63;;;11.85;81.87
5522;BME280;2783;48.730;8.006;2023-03-26T00:16:12;99637.69;;;11.86;82.42
5522;BME280;2783;48.730;8.006;2023-03-26T00:18:39;99645.94;;;11.80;82.20
5522;BME280;2783;48.730;8.006;2023-03-26T00:21:04;99641.69;;;11.76;83.09
5522;BME280;2783;48.730;8.006;2023-03-26T00:23:31;99637.03;;;11.81;82.75
5522;BME280;2783;48.730;8.006;2023-03-26T00:25:57;99635.28;;;11.80;82.85
5522;BME280;2783;48.730;8.006;2023-03-26T00:28:23;99634.47;;;11.78;82.98
5522;BME280;2783;48.730;8.006;2023-03-26T00:30:48;99637.88;;;11.81;82.49
5522;BME280;2783;48.730;8.006;2023-03-26T00:33:14;99633.44;;;11.82;82.27
5522;BME280;2783;48.730;8.006;2023-03-26T00:35:41;99628.09;;;11.82;82.85
5522;BME280;2783;48.730;8.006;2023-03-26T00:38:14;99627.28;;;11.80;82.80
5522;BME280;2783;48.730;8.006;2023-03-26T00:40:39;99631.72;;;11.81;83.21
5522;BME280;2783;48.730;8.006;2023-03-26T00:43:08;99621.28;;;11.75;83.38
5522;BME280;2783;48.730;8.006;2023-03-26T00:45:34;99625.16;;;11.68;83.66
5522;BME280;2783;48.730;8.006;2023-03-26T00:47:59;99619.78;;;11.69;84.33
5522;BME280;2783;48.730;8.006;2023-03-26T00:50:26;99612.63;;;11.70;84.42
5522;BME280;2783;48.730;8.006;2023-03-26T00:52:52;99611.81;;;11.68;84.45
5522;BME280;2783;48.730;8.006;2023-03-26T00:55:19;99616.09;;;11.72;84.36
5522;BME280;2783;48.730;8.006;2023-03-26T00:57:45;99611.59;;;11.74;84.14
5522;BME280;2783;48.730;8.006;2023-03-26T01:00:11;99609.16;;;11.68;83.99
5522;BME280;2783;48.730;8.006;2023-03-26T01:02:39;99603.78;;;11.69;84.66
5522;BME280;2783;48.730;8.006;2023-03-26T01:07:49;99597.88;;;11.61;85.21
5522;BME280;2783;48.730;8.006;2023-03-26T01:10:15;99596.09;;;11.62;84.80
5522;BME280;2783;48.730;8.006;2023-03-26T01:12:41;99587.16;;;11.64;84.66
5522;BME280;2783;48.730;8.006;2023-03-26T01:15:08;99580.09;;;11.62;84.63
5522;BME280;2783;48.730;8.006;2023-03-26T01:17:33;99580.94;;;11.64;84.94
5522;BME280;2783;48.730;8.006;2023-03-26T01:22:35;99565.22;;;11.58;83.76
5522;BME280;2783;48.730;8.006;2023-03-26T01:25:01;99560.59;;;11.61;84.41
5522;BME280;2783;48.730;8.006;2023-03-26T01:30:04;99545.44;;;11.63;83.06
5522;BME280;2783;48.730;8.006;2023-03-26T01:35:13;99540.09;;;11.63;82.99
5522;BME280;2783;48.730;8.006;2023-03-26T01:40:20;99515.25;;;11.63;83.64
5522;BME280;2783;48.730;8.006;2023-03-26T01:42:55;99502.75;;;11.65;83.05
5522;BME280;2783;48.730;8.006;2023-03-26T01:45:25;99503.47;;;11.68;82.71
5522;BME280;2783;48.730;8.006;2023-03-26T01:47:52;99507.16;;;11.66;83.78
5522;BME280;2783;48.730;8.006;2023-03-26T01:50:18;99507.81;;;11.71;83.42
5522;BME280;2783;48.730;8.006;2023-03-26T01:52:43;99499.03;;;11.69;83.80
5522;BME280;2783;48.730;8.006;2023-03-26T01:55:09;99497.28;;;11.68;84.26
5522;BME280;2783;48.730;8.006;2023-03-26T02:00:30;99478.78;;;11.65;84.64
5522;BME280;2783;48.730;8.006;2023-03-26T02:02:58;99480.38;;;11.69;84.20
5522;BME280;2783;48.730;8.006;2023-03-26T02:05:28;99478.44;;;11.72;84.00
5522;BME280;2783;48.730;8.006;2023-03-26T02:12:47;99456.31;;;11.70;84.90
5522;BME280;2783;48.730;8.006;2023-03-26T02:15:13;99446.66;;;11.68;84.46
5522;BME280;2783;48.730;8.006;2023-03-26T02:17:39;99449.22;;;11.71;84.84
5522;BME280;2783;48.730;8.006;2023-03-26T02:20:08;99445.66;;;11.70;85.11
5522;BME280;2783;48.730;8.006;2023-03-26T02:22:35;99446.66;;;11.68;84.79
5522;BME280;2783;48.730;8.006;2023-03-26T02:25:15;99447.59;;;11.67;85.48
5522;BME280;2783;48.730;8.006;2023-03-26T02:27:41;99440.25;;;11.72;85.51
5522;BME280;2783;48.730;8.006;2023-03-26T02:30:07;99426.72;;;11.76;84.68
5522;BME280;2783;48.730;8.006;2023-03-26T02:32:33;99418.56;;;11.79;84.84
5522;BME280;2783;48.730;8.006;2023-03-26T02:34:59;99422.03;;;11.81;84.74
5522;BME280;2783;48.730;8.006;2023-03-26T02:37:24;99414.06;;;11.81;85.58
5522;BME280;2783;48.730;8.006;2023-03-26T02:39:50;99411.38;;;11.81;85.46
5522;BME280;2783;48.730;8.006;2023-03-26T02:42:15;99405.34;;;11.78;84.71
5522;BME280;2783;48.730;8.006;2023-03-26T02:44:41;99399.25;;;11.76;85.29
5522;BME280;2783;48.730;8.006;2023-03-26T02:47:06;99385.03;;;11.75;85.40
5522;BME280;2783;48.730;8.006;2023-03-26T02:49:31;99384.97;;;11.77;85.09
5522;BME280;2783;48.730;8.006;2023-03-26T02:51:58;99375.44;;;11.71;84.89
5522;BME280;2783;48.730;8.006;2023-03-26T02:54:23;99375.59;;;11.68;85.09
5522;BME280;2783;48.730;8.006;2023-03-26T02:56:48;99373.16;;;11.64;85.12
5522;BME280;2783;48.730;8.006;2023-03-26T02:59:13;99367.00;;;11.62;84.90
5522;BME280;2783;48.730;8.006;2023-03-26T03:01:39;99368.78;;;11.61;85.02
5522;BME280;2783;48.730;8.006;2023-03-26T03:04:08;99366.09;;;11.63;85.05
5522;BME280;2783;48.730;8.006;2023-03-26T03:06:34;99356.31;;;11.63;86.06
5522;BME280;2783;48.730;8.006;2023-03-26T03:08:59;99358.91;;;11.65;85.75
5522;BME280;2783;48.730;8.006;2023-03-26T03:11:26;99349.19;;;11.64;85.65
5522;BME280;2783;48.730;8.006;2023-03-26T03:13:52;99343.72;;;11.67;85.98
5522;BME280;2783;48.730;8.006;2023-03-26T03:16:17;99335.72;;;11.67;85.23
5522;BME280;2783;48.730;8.006;2023-03-26T03:18:42;99336.66;;;11.66;85.63
5522;BME280;2783;48.730;8.006;2023-03-26T03:21:07;99339.34;;;11.66;85.20
5522;BME280;2783;48.730;8.006;2023-03-26T03:23:33;99342.16;;;11.61;86.09
5522;BME280;2783;48.730;8.006;2023-03-26T03:25:58;99324.63;;;11.57;85.51
5522;BME280;2783;48.730;8.006;2023-03-26T03:28:24;99327.34;;;11.56;85.97
5522;BME280;2783;48.730;8.006;2023-03-26T03:30:50;99327.34;;;11.56;85.81
5522;BME280;2783;48.730;8.006;2023-03-26T03:33:20;99316.69;;;11.56;85.36
5522;BME280;2783;48.730;8.006;2023-03-26T03:35:46;99317.50;;;11.58;86.28
5522;BME280;2783;48.730;8.006;2023-03-26T03:38:13;99310.34;;;11.58;86.24
5522;BME280;2783;48.730;8.006;2023-03-26T03:40:38;99306.84;;;11.58;86.32
5522;BME280;2783;48.730;8.006;2023-03-26T03:43:03;99303.38;;;11.56;86.16
5522;BME280;2783;48.730;8.006;2023-03-26T03:45:28;99308.78;;;11.54;86.18
5522;BME280;2783;48.730;8.006;2023-03-26T03:47:54;99309.63;;;11.55;85.28
5522;BME280;2783;48.730;8.006;2023-03-26T03:50:19;99309.63;;;11.55;86.33
5522;BME280;2783;48.730;8.006;2023-03-26T03:52:45;99298.13;;;11.54;85.48
5522;BME280;2783;48.730;8.006;2023-03-26T03:55:10;99298.97;;;11.55;85.37
5522;BME280;2783;48.730;8.006;2023-03-26T03:57:38;99290.50;;;11.47;85.35
5522;BME280;2783;48.730;8.006;2023-03-26T04:00:04;99291.13;;;11.52;85.58
5522;BME280;2783;48.730;8.006;2023-03-26T04:02:32;99279.56;;;11.53;85.74
5522;BME280;2783;48.730;8.006;2023-03-26T04:04:58;99266.69;;;11.44;85.53
5522;BME280;2783;48.730;8.006;2023-03-26T04:07:24;99263.09;;;11.45;84.37
5522;BME280;2783;48.730;8.006;2023-03-26T04:09:50;99250.38;;;11.50;84.07
5522;BME280;2783;48.730;8.006;2023-03-26T04:12:15;99242.56;;;11.47;84.83
5522;BME280;2783;48.730;8.006;2023-03-26T04:14:41;99213.91;;;11.52;84.60
5522;BME280;2783;48.730;8.006;2023-03-26T04:17:06;99194.19;;;11.56;84.63
5522;BME280;2783;48.730;8.006;2023-03-26T04:19:31;99199.66;;;11.53;83.63
5522;BME280;2783;48.730;8.006;2023-03-26T04:21:56;99217.09;;;11.41;84.70
5522;BME280;2783;48.730;8.006;2023-03-26T04:24:30;99229.25;;;11.47;85.39
5522;BME280;2783;48.730;8.006;2023-03-26T04:26:58;99229.09;;;11.50;84.82
5522;BME280;2783;48.730;8.006;2023-03-26T04:29:24;99226.88;;;11.59;85.05
5522;BME280;2783;48.730;8.006;2023-03-26T04:31:51;99213.47;;;11.61;85.10
5522;BME280;2783;48.730;8.006;2023-03-26T04:34:22;99210.97;;;11.58;85.59
5522;BME280;2783;48.730;8.006;2023-03-26T04:36:49;99212.59;;;11.60;84.70
5522;BME280;2783;48.730;8.006;2023-03-26T04:39:18;99204.69;;;11.59;84.91
5522;BME280;2783;48.730;8.006;2023-03-26T04:41:45;99207.50;;;11.56;85.30
5522;BME280;2783;48.730;8.006;2023-03-26T04:44:11;99198.88;;;11.51;84.85
5522;BME280;2783;48.730;8.006;2023-03-26T04:46:38;99182.09;;;11.49;83.45
5522;BME280;2783;48.730;8.006;2023-03-26T04:49:07;99178.03;;;11.59;77.51
5522;BME280;2783;48.730;8.006;2023-03-26T04:51:35;99166.66;;;11.74;76.96
5522;BME280;2783;48.730;8.006;2023-03-26T04:54:02;99151.22;;;11.80;76.31
5522;BME280;2783;48.730;8.006;2023-03-26T04:59:03;99147.97;;;11.91;74.38
5522;BME280;2783;48.730;8.006;2023-03-26T05:01:28;99137.91;;;11.98;72.26
5522;BME280;2783;48.730;8.006;2023-03-26T05:03:54;99126.50;;;12.11;71.87
5522;BME280;2783;48.730;8.006;2023-03-26T05:06:21;99139.66;;;12.14;71.64
5522;BME280;2783;48.730;8.006;2023-03-26T05:08:46;99131.34;;;12.20;72.62
5522;BME280;2783;48.730;8.006;2023-03-26T05:11:11;99130.31;;;12.23;73.64
5522;BME280;2783;48.730;8.006;2023-03-26T05:13:37;99121.47;;;12.22;74.13
5522;BME280;2783;48.730;8.006;2023-03-26T05:16:02;99116.28;;;12.19;74.36
5522;BME280;2783;48.730;8.006;2023-03-26T05:18:27;99112.16;;;12.14;74.65
5522;BME280;2783;48.730;8.006;2023-03-26T05:20:53;99099.06;;;12.09;74.65
5522;BME280;2783;48.730;8.006;2023-03-26T05:23:19;99106.28;;;12.07;75.50
5522;BME280;2783;48.730;8.006;2023-03-26T05:25:45;99095.78;;;12.04;75.50
5522;BME280;2783;48.730;8.006;2023-03-26T05:28:11;99096.81;;;12.02;76.15
5522;BME280;2783;48.730;8.006;2023-03-26T05:30:36;99089.94;;;11.98;77.04
5522;BME280;2783;48.730;8.006;2023-03-26T05:33:01;99082.16;;;11.93;78.91
5522;BME280;2783;48.730;8.006;2023-03-26T05:35:28;99071.66;;;11.90;79.77
5522;BME280;2783;48.730;8.006;2023-03-26T05:37:53;99063.84;;;11.87;79.80
5522;BME280;2783;48.730;8.006;2023-03-26T05:40:18;99070.13;;;11.86;81.46
5522;BME280;2783;48.730;8.006;2023-03-26T05:42:44;99058.06;;;11.79;82.09
5522;BME280;2783;48.730;8.006;2023-03-26T05:45:10;99059.06;;;11.76;82.42
5522;BME280;2783;48.730;8.006;2023-03-26T05:47:35;99046.84;;;11.72;82.19
5522;BME280;2783;48.730;8.006;2023-03-26T05:50:01;99038.78;;;11.74;83.08
5522;BME280;2783;48.730;8.006;2023-03-26T05:52:26;99040.50;;;11.75;83.27
5522;BME280;2783;48.730;8.006;2023-03-26T05:54:51;99042.22;;;11.76;84.64
5522;BME280;2783;48.730;8.006;2023-03-26T05:57:17;99048.47;;;11.75;84.63
5522;BME280;2783;48.730;8.006;2023-03-26T05:59:42;99022.81;;;11.74;85.66
5522;BME280;2783;48.730;8.006;2023-03-26T06:02:08;99026.34;;;11.74;86.37
5522;BME280;2783;48.730;8.006;2023-03-26T06:04:33;99030.16;;;11.69;87.88
5522;BME280;2783;48.730;8.006;2023-03-26T06:06:59;99033.91;;;11.65;88.54
5522;BME280;2783;48.730;8.006;2023-03-26T06:09:26;99017.09;;;11.64;89.49
5522;BME280;2783;48.730;8.006;2023-03-26T06:11:51;99008.25;;;11.64;90.22
5522;BME280;2783;48.730;8.006;2023-03-26T06:14:16;99005.56;;;11.64;90.97
5522;BME280;2783;48.730;8.006;2023-03-26T06:16:41;98997.72;;;11.61;92.05
5522;BME280;2783;48.730;8.006;2023-03-26T06:19:07;98994.94;;;11.64;92.64
5522;BME280;2783;48.730;8.006;2023-03-26T06:21:32;98985.97;;;11.65;93.66
5522;BME280;2783;48.730;8.006;2023-03-26T06:23:57;98983.44;;;11.62;94.18
5522;BME280;2783;48.730;8.006;2023-03-26T06:26:23;98978.13;;;11.62;94.13
5522;BME280;2783;48.730;8.006;2023-03-26T06:28:48;98973.84;;;11.59;95.32
5522;BME280;2783;48.730;8.006;2023-03-26T06:31:13;98972.97;;;11.59;95.98
5522;BME280;2783;48.730;8.006;2023-03-26T06:33:41;98970.31;;;11.59;96.14
5522;BME280;2783;48.730;8.006;2023-03-26T06:36:06;98981.13;;;11.56;96.52
5522;BME280;2783;48.730;8.006;2023-03-26T06:38:31;98973.22;;;11.54;96.61
5522;BME280;2783;48.730;8.006;2023-03-26T06:41:06;98967.03;;;11.54;97.07
5522;BME280;2783;48.730;8.006;2023-03-26T06:43:31;98972.50;;;11.51;96.68
5522;BME280;2783;48.730;8.006;2023-03-26T06:45:59;98967.34;;;11.48;97.60
5522;BME280;2783;48.730;8.006;2023-03-26T06:48:24;98964.91;;;11.43;97.97
5522;BME280;2783;48.730;8.006;2023-03-26T06:50:49;98963.38;;;11.39;98.13
5522;BME280;2783;48.730;8.006;2023-03-26T06:53:15;98959.06;;;11.37;98.60
5522;BME280;2783;48.730;8.006;2023-03-26T06:55:40;98959.91;;;11.37;99.32
5522;BME280;2783;48.730;8.006;2023-03-26T06:58:05;98949.03;;;11.42;99.34
5522;BME280;2783;48.730;8.006;2023-03-26T07:00:31;98947.06;;;11.45;99.80
5522;BME280;2783;48.730;8.006;2023-03-26T07:02:56;98948.00;;;11.44;100.00
5522;BME280;2783;48.730;8.006;2023-03-26T07:05:21;98941.75;;;11.45;100.00
5522;BME280;2783;48.730;8.006;2023-03-26T07:07:46;98928.94;;;11.52;100.00
5522;BME280;2783;48.730;8.006;2023-03-26T07:10:12;98922.63;;;11.54;100.00
5522;BME280;2783;48.730;8.006;2023-03-26T07:12:37;98916.16;;;11.58;100.00
5522;BME280;2783;48.730;8.006;2023-03-26T07:15:02;98917.91;;;11.59;100.00
5522;BME280;2783;48.730;8.006;2023-03-26T07:17:28;98912.28;;;11.65;100.00
5522;BME280;2783;48.730;8.006;2023-03-26T07:19:53;98913.84;;;11.69;100.00
5522;BME280;2783;48.730;8.006;2023-03-26T07:22:20;98913.88;;;11.68;100.00
5522;BME280;2783;48.730;8.006;2023-03-26T07:24:46;98914.69;;;11.70;100.00
5522;BME280;2783;48.730;8.006;2023-03-26T07:30:02;98909.53;;;11.67;100.00
5522;BME280;2783;48.730;8.006;2023-03-26T07:32:42;98907.16;;;11.61;100.00
5522;BME280;2783;48.730;8.006;2023-03-26T07:40:15;98903.81;;;11.57;100.00
5522;BME280;2783;48.730;8.006;2023-03-26T07:45:20;98919.47;;;11.63;100.00
5522;BME280;2783;48.730;8.006;2023-03-26T07:47:46;98931.69;;;11.67;100.00
5522;BME280;2783;48.730;8.006;2023-03-26T07:50:14;98924.50;;;11.69;100.00
5522;BME280;2783;48.730;8.006;2023-03-26T07:52:40;98925.50;;;11.67;100.00
5522;BME280;2783;48.730;8.006;2023-03-26T07:55:05;98923.41;;;11.56;100.00
5522;BME280;2783;48.730;8.006;2023-03-26T08:00:22;98926.25;;;11.36;100.00
5522;BME280;2783;48.730;8.006;2023-03-26T08:05:19;98924.00;;;11.29;100.00
5522;BME280;2783;48.730;8.006;2023-03-26T08:10:30;98909.25;;;11.39;100.00
5522;BME280;2783;48.730;8.006;2023-03-26T08:15:43;98916.72;;;11.65;100.00
5522;BME280;2783;48.730;8.006;2023-03-26T08:23:06;98917.69;;;13.16;100.00
5522;BME280;2783;48.730;8.006;2023-03-26T08:30:48;98917.75;;;12.71;98.07
5522;BME280;2783;48.730;8.006;2023-03-26T08:33:17;98926.34;;;12.76;98.76
5522;BME280;2783;48.730;8.006;2023-03-26T08:35:43;98924.97;;;12.69;98.74
5522;BME280;2783;48.730;8.006;2023-03-26T08:38:13;98926.53;;;12.73;98.92
5522;BME280;2783;48.730;8.006;2023-03-26T08:46:00;98915.78;;;13.04;98.42
5522;BME280;2783;48.730;8.006;2023-03-26T08:54:05;98910.97;;;13.67;95.77
5522;BME280;2783;48.730;8.006;2023-03-26T08:59:47;98919.44;;;13.88;94.59
5522;BME280;2783;48.730;8.006;2023-03-26T09:09:55;98920.59;;;13.98;91.89
5522;BME280;2783;48.730;8.006;2023-03-26T09:25:55;98926.34;;;16.36;72.88
5522;BME280;2783;48.730;8.006;2023-03-26T09:30:58;98921.34;;;15.70;74.28
5522;BME280;2783;48.730;8.006;2023-03-26T09:36:20;98914.69;;;15.63;73.73
5522;BME280;2783;48.730;8.006;2023-03-26T09:41:15;98907.16;;;16.66;70.52
5522;BME280;2783;48.730;8.006;2023-03-26T09:51:11;98901.59;;;19.12;59.37
5522;BME280;2783;48.730;8.006;2023-03-26T09:58:41;98905.41;;;19.71;51.19
5522;BME280;2783;48.730;8.006;2023-03-26T10:01:22;98900.72;;;19.43;49.38
5522;BME280;2783;48.730;8.006;2023-03-26T10:03:55;98901.13;;;20.19;50.88
5522;BME280;2783;48.730;8.006;2023-03-26T10:11:56;98892.84;;;19.60;48.16
5522;BME280;2783;48.730;8.006;2023-03-26T10:25:42;98893.31;;;18.72;47.00
5522;BME280;2783;48.730;8.006;2023-03-26T10:33:38;98906.75;;;17.63;49.03
5522;BME280;2783;48.730;8.006;2023-03-26T10:41:29;98901.13;;;17.66;50.61
5522;BME280;2783;48.730;8.006;2023-03-26T10:51:56;98917.31;;;16.50;56.56
5522;BME280;2783;48.730;8.006;2023-03-26T10:56:51;98922.06;;;15.98;58.26
5522;BME280;2783;48.730;8.006;2023-03-26T10:59:17;98918.41;;;16.47;58.19
5522;BME280;2783;48.730;8.006;2023-03-26T11:01:52;98922.03;;;16.59;53.52
5522;BME280;2783;48.730;8.006;2023-03-26T11:07:15;98905.97;;;18.61;47.19
5522;BME280;2783;48.730;8.006;2023-03-26T11:20:36;98904.38;;;20.91;40.22
5522;BME280;2783;48.730;8.006;2023-03-26T11:32:44;98888.56;;;21.53;41.96
5522;BME280;2783;48.730;8.006;2023-03-26T11:35:14;98892.88;;;21.46;41.16
5522;BME280;2783;48.730;8.006;2023-03-26T11:37:42;98884.50;;;21.21;40.62
5522;BME280;2783;48.730;8.006;2023-03-26T11:40:15;98882.63;;;20.73;40.89
5522;BME280;2783;48.730;8.006;2023-03-26T11:42:44;98887.22;;;20.33;41.85
5522;BME280;2783;48.730;8.006;2023-03-26T11:45:15;98885.66;;;19.71;42.65
5522;BME280;2783;48.730;8.006;2023-03-26T11:47:46;98879.50;;;19.18;43.69
5522;BME280;2783;48.730;8.006;2023-03-26T11:50:23;98872.44;;;18.85;44.46
5522;BME280;2783;48.730;8.006;2023-03-26T11:52:49;98871.25;;;18.24;45.72
5522;BME280;2783;48.730;8.006;2023-03-26T11:55:14;98867.16;;;17.87;48.32
5522;BME280;2783;48.730;8.006;2023-03-26T11:57:42;98872.03;;;17.71;46.86
5522;BME280;2783;48.730;8.006;2023-03-26T12:00:11;98870.56;;;17.45;47.65
5522;BME280;2783;48.730;8.006;2023-03-26T12:02:42;98877.84;;;17.43;49.38
5522;BME280;2783;48.730;8.006;2023-03-26T12:05:18;98867.81;;;17.34;51.22
5522;BME280;2783;48.730;8.006;2023-03-26T12:08:14;98868.50;;;17.14;51.24
5522;BME280;2783;48.730;8.006;2023-03-26T12:10:36;98871.09;;;16.81;54.12
5522;BME280;2783;48.730;8.006;2023-03-26T12:15:46;98866.00;;;16.89;59.08
5522;BME280;2783;48.730;8.006;2023-03-26T12:18:25;98850.63;;;17.02;59.79
5522;BME280;2783;48.730;8.006;2023-03-26T12:26:04;98826.56;;;17.68;59.23
5522;BME280;2783;48.730;8.006;2023-03-26T12:28:35;98835.59;;;17.56;53.17
5522;BME280;2783;48.730;8.006;2023-03-26T12:31:01;98830.31;;;17.44;57.25
5522;BME280;2783;48.730;8.006;2023-03-26T12:33:30;98826.06;;;17.41;57.65
5522;BME280;2783;48.730;8.006;2023-03-26T12:36:14;98830.44;;;17.31;54.29
5522;BME280;2783;48.730;8.006;2023-03-26T12:38:40;98837.44;;;16.88;50.50
5522;BME280;2783;48.730;8.006;2023-03-26T12:41:13;98841.53;;;16.81;52.09
5522;BME280;2783;48.730;8.006;2023-03-26T12:43:46;98832.44;;;16.60;50.20
5522;BME280;2783;48.730;8.006;2023-03-26T12:46:31;98824.38;;;16.60;50.27
5522;BME280;2783;48.730;8.006;2023-03-26T12:48:58;98825.69;;;16.78;50.50
5522;BME280;2783;48.730;8.006;2023-03-26T12:54:06;98824.06;;;17.21;49.80
5522;BME280;2783;48.730;8.006;2023-03-26T12:56:59;98822.19;;;16.99;48.72
5522;BME280;2783;48.730;8.006;2023-03-26T13:05:27;98814.13;;;16.18;49.95
5522;BME280;2783;48.730;8.006;2023-03-26T13:07:37;98815.25;;;16.15;51.59
5522;BME280;2783;48.730;8.006;2023-03-26T13:17:33;98817.34;;;16.23;53.25
5522;BME280;2783;48.730;8.006;2023-03-26T13:22:36;98818.19;;;16.00;52.99
5522;BME280;2783;48.730;8.006;2023-03-26T13:25:22;98825.66;;;15.83;55.37
5522;BME280;2783;48.730;8.006;2023-03-26T13:28:12;98849.94;;;15.57;55.75
5522;BME280;2783;48.730;8.006;2023-03-26T13:33:25;98959.53;;;13.60;67.78
5522;BME280;2783;48.730;8.006;2023-03-26T13:36:02;98965.31;;;11.53;78.51
5522;BME280;2783;48.730;8.006;2023-03-26T13:41:03;98938.78;;;10.66;90.67
5522;BME280;2783;48.730;8.006;2023-03-26T13:48:28;98931.22;;;10.58;97.52
5522;BME280;2783;48.730;8.006;2023-03-26T13:50:59;98899.47;;;10.55;97.56
5522;BME280;2783;48.730;8.006;2023-03-26T13:53:28;98915.09;;;10.61;99.29
5522;BME280;2783;48.730;8.006;2023-03-26T13:55:57;98914.16;;;10.80;100.00
5522;BME280;2783;48.730;8.006;2023-03-26T13:58:31;98916.50;;;11.03;100.00
5522;BME280;2783;48.730;8.006;2023-03-26T14:06:25;98924.50;;;11.20;98.45
5522;BME280;2783;48.730;8.006;2023-03-26T14:09:01;98927.59;;;11.28;97.99
5522;BME280;2783;48.730;8.006;2023-03-26T14:14:00;98931.59;;;11.19;96.45
5522;BME280;2783;48.730;8.006;2023-03-26T14:16:38;98935.94;;;11.22;95.67
5522;BME280;2783;48.730;8.006;2023-03-26T14:19:31;98934.34;;;11.18;94.89
5522;BME280;2783;48.730;8.006;2023-03-26T14:24:39;98936.09;;;11.02;94.64
5522;BME280;2783;48.730;8.006;2023-03-26T14:27:26;98937.81;;;11.03;94.14
5522;BME280;2783;48.730;8.006;2023-03-26T14:30:12;98942.03;;;10.90;93.85
5522;BME280;2783;48.730;8.006;2023-03-26T14:35:22;98942.97;;;11.06;94.59
5522;BME280;2783;48.730;8.006;2023-03-26T14:40:43;98944.13;;;11.17;92.90
5522;BME280;2783;48.730;8.006;2023-03-26T14:44:16;98929.97;;;11.17;93.54
5522;BME280;2783;48.730;8.006;2023-03-26T14:46:06;98927.94;;;11.22;92.11
5522;BME280;2783;48.730;8.006;2023-03-26T14:49:01;98924.78;;;11.31;91.67
5522;BME280;2783;48.730;8.006;2023-03-26T14:54:15;98933.22;;;11.39;88.93
5522;BME280;2783;48.730;8.006;2023-03-26T14:59:31;98906.22;;;11.62;88.89
5522;BME280;2783;48.730;8.006;2023-03-26T15:21:22;98936.22;;;11.33;90.76
5522;BME280;2783;48.730;8.006;2023-03-26T15:50:28;98918.38;;;11.50;97.14
5522;BME280;2783;48.730;8.006;2023-03-26T15:55:33;98916.56;;;11.68;96.65
5522;BME280;2783;48.730;8.006;2023-03-26T15:58:50;98913.13;;;11.66;95.42
5522;BME280;2783;48.730;8.006;2023-03-26T16:03:25;98931.41;;;11.39;91.61
5522;BME280;2783;48.730;8.006;2023-03-26T16:16:56;98945.53;;;11.41;86.62
5522;BME280;2783;48.730;8.006;2023-03-26T16:21:54;98943.31;;;11.49;86.21
5522;BME280;2783;48.730;8.006;2023-03-26T16:24:22;98941.66;;;11.64;87.54
5522;BME280;2783;48.730;8.006;2023-03-26T16:29:19;98939.13;;;11.61;87.28
5522;BME280;2783;48.730;8.006;2023-03-26T16:34:37;98941.19;;;11.56;86.91
5522;BME280;2783;48.730;8.006;2023-03-26T16:37:25;98937.38;;;11.60;87.61
5522;BME280;2783;48.730;8.006;2023-03-26T16:39:51;98952.69;;;11.56;87.25
5522;BME280;2783;48.730;8.006;2023-03-26T16:42:24;98948.13;;;11.58;86.83
5522;BME280;2783;48.730;8.006;2023-03-26T16:45:04;98955.28;;;11.58;87.71
5522;BME280;2783;48.730;8.006;2023-03-26T16:55:52;98949.34;;;11.53;85.55
5522;BME280;2783;48.730;8.006;2023-03-26T17:01:07;98949.47;;;11.50;86.00
5522;BME280;2783;48.730;8.006;2023-03-26T17:08:55;98955.47;;;11.38;86.89
5522;BME280;2783;48.730;8.006;2023-03-26T17:11:28;98951.31;;;11.32;87.70
5522;BME280;2783;48.730;8.006;2023-03-26T17:16:31;98943.75;;;11.25;87.51
5522;BME280;2783;48.730;8.006;2023-03-26T17:19:00;98942.16;;;11.21;88.61
5522;BME280;2783;48.730;8.006;2023-03-26T17:24:08;98948.59;;;11.17;87.52
5522;BME280;2783;48.730;8.006;2023-03-26T17:26:51;98953.84;;;11.18;88.85
5522;BME280;2783;48.730;8.006;2023-03-26T17:36:56;99024.97;;;10.81;82.95
5522;BME280;2783;48.730;8.006;2023-03-26T17:42:44;99017.53;;;10.51;86.50
5522;BME280;2783;48.730;8.006;2023-03-26T17:44:54;99021.63;;;10.40;89.80
5522;BME280;2783;48.730;8.006;2023-03-26T17:49:48;99026.84;;;10.24;92.86
5522;BME280;2783;48.730;8.006;2023-03-26T17:52:16;99033.84;;;10.25;92.80
5522;BME280;2783;48.730;8.006;2023-03-26T17:54:47;99037.72;;;10.18;94.35
5522;BME280;2783;48.730;8.006;2023-03-26T17:59:48;99055.66;;;9.95;97.56
5522;BME280;2783;48.730;8.006;2023-03-26T18:02:15;99057.72;;;9.88;97.93
5522;BME280;2783;48.730;8.006;2023-03-26T18:04:43;99052.59;;;9.84;99.41
5522;BME280;2783;48.730;8.006;2023-03-26T18:12:27;99044.09;;;9.76;100.00
5522;BME280;2783;48.730;8.006;2023-03-26T18:17:43;99014.06;;;9.55;100.00
5522;BME280;2783;48.730;8.006;2023-03-26T18:20:18;99002.78;;;9.70;100.00
5522;BME280;2783;48.730;8.006;2023-03-26T18:22:43;99001.63;;;9.76;100.00
5522;BME280;2783;48.730;8.006;2023-03-26T18:25:13;99009.94;;;9.87;100.00
5522;BME280;2783;48.730;8.006;2023-03-26T18:27:42;98993.81;;;9.91;100.00
5522;BME280;2783;48.730;8.006;2023-03-26T18:32:33;98995.38;;;9.95;99.88
5522;BME280;2783;48.730;8.006;2023-03-26T18:35:18;99005.81;;;10.00;98.73
5522;BME280;2783;48.730;8.006;2023-03-26T18:37:44;99004.81;;;10.02;98.41
5522;BME280;2783;48.730;8.006;2023-03-26T18:40:12;99000.28;;;10.04;98.80
5522;BME280;2783;48.730;8.006;2023-03-26T18:42:42;98990.47;;;10.06;98.45
5522;BME280;2783;48.730;8.006;2023-03-26T18:45:30;98998.84;;;9.97;97.86
5522;BME280;2783;48.730;8.006;2023-03-26T18:47:55;98992.59;;;9.98;98.36
5522;BME280;2783;48.730;8.006;2023-03-26T18:50:26;99001.34;;;9.82;97.33
5522;BME280;2783;48.730;8.006;2023-03-26T18:52:52;98993.13;;;9.68;99.11
5522;BME280;2783;48.730;8.006;2023-03-26T18:55:19;98996.56;;;9.51;100.00
5522;BME280;2783;48.730;8.006;2023-03-26T18:57:45;98999.56;;;9.44;100.00
5522;BME280;2783;48.730;8.006;2023-03-26T19:00:17;99000.81;;;9.35;100.00
5522;BME280;2783;48.730;8.006;2023-03-26T19:02:45;98997.63;;;9.27;100.00
5522;BME280;2783;48.730;8.006;2023-03-26T19:05:12;99006.91;;;9.17;100.00
5522;BME280;2783;48.730;8.006;2023-03-26T19:07:38;99001.16;;;9.07;100.00
5522;BME280;2783;48.730;8.006;2023-03-26T19:10:03;99005.59;;;9.07;100.00
5522;BME280;2783;48.730;8.006;2023-03-26T19:12:29;99000.44;;;9.24;100.00
5522;BME280;2783;48.730;8.006;2023-03-26T19:17:26;98993.28;;;9.06;100.00
5522;BME280;2783;48.730;8.006;2023-03-26T19:19:52;98999.88;;;9.16;100.00